sensor_id;sensor_type;location;lat;lon;timestamp;P1;durP1;ratioP1;P2;durP2;ratioP2
5054;SDS011;13829;48.990;8.346;2023-07-08T00:00:39;14.93;;;8.10;;
5054;SDS011;13829;48.990;8.346;2023-07-08T00:03:07;12.38;;;7.68;;
5054;SDS011;13829;48.990;8.346;2023-07-08T00:05:34;11.18;;;7.55;;
5054;SDS011;13829;48.990;8.346;2023-07-08T00:08:02;13.38;;;7.38;;
5054;SDS011;13829;48.990;8.346;2023-07-08T00:10:30;11.90;;;8.10;;
5054;SDS011;13829;48.990;8.346;2023-07-08T00:12:57;10.80;;;7.88;;
5054;SDS011;13829;48.990;8.346;2023-07-08T00:15:25;12.77;;;8.75;;
5054;SDS011;13829;48.990;8.346;2023-07-08T00:17:56;13.57;;;8.23;;
5054;SDS011;13829;48.990;8.346;2023-07-08T00:20:26;10.30;;;7.72;;
5054;SDS011;13829;48.990;8.346;2023-07-08T00:22:58;12.93;;;7.85;;
5054;SDS011;13829;48.990;8.346;2023-07-08T00:25:26;9.73;;;7.35;;
5054;SDS011;13829;48.990;8.346;2023-07-08T00:27:53;12.27;;;7.30;;
5054;SDS011;13829;48.990;8.346;2023-07-08T00:30:21;11.30;;;7.72;;
5054;SDS011;13829;48.990;8.346;2023-07-08T00:32:50;11.80;;;7.28;;
5054;SDS011;13829;48.990;8.346;2023-07-08T00:35:20;9.80;;;6.97;;
5054;SDS011;13829;48.990;8.346;2023-07-08T00:37:50;9.45;;;7.50;;
5054;SDS011;13829;48.990;8.346;2023-07-08T00:40:19;10.23;;;7.38;;
5054;SDS011;13829;48.990;8.346;2023-07-08T00:42:48;9.65;;;7.82;;
5054;SDS011;13829;48.990;8.346;2023-07-08T00:45:16;11.20;;;7.13;;
5054;SDS011;13829;48.990;8.346;2023-07-08T00:47:56;11.15;;;7.07;;
5054;SDS011;13829;48.990;8.346;2023-07-08T00:50:34;9.35;;;7.30;;
5054;SDS011;13829;48.990;8.346;2023-07-08T00:55:57;10.70;;;7.72;;
5054;SDS011;13829;48.990;8.346;2023-07-08T00:58:29;9.75;;;7.18;;
5054;SDS011;13829;48.990;8.346;2023-07-08T01:01:03;8.88;;;6.93;;
5054;SDS011;13829;48.990;8.346;2023-07-08T01:03:33;13.07;;;8.65;;
5054;SDS011;13829;48.990;8.346;2023-07-08T01:06:10;12.15;;;7.70;;
5054;SDS011;13829;48.990;8.346;2023-07-08T01:08:39;10.07;;;7.45;;
5054;SDS011;13829;48.990;8.346;2023-07-08T01:11:06;13.02;;;8.30;;
5054;SDS011;13829;48.990;8.346;2023-07-08T01:13:34;12.00;;;8.15;;
5054;SDS011;13829;48.990;8.346;2023-07-08T01:16:08;12.10;;;9.02;;
5054;SDS011;13829;48.990;8.346;2023-07-08T01:18:37;13.32;;;9.18;;
5054;SDS011;13829;48.990;8.346;2023-07-08T01:21:04;13.35;;;8.00;;
5054;SDS011;13829;48.990;8.346;2023-07-08T01:23:56;10.63;;;8.40;;
5054;SDS011;13829;48.990;8.346;2023-07-08T01:26:24;11.80;;;8.38;;
5054;SDS011;13829;48.990;8.346;2023-07-08T01:28:53;11.48;;;8.13;;
5054;SDS011;13829;48.990;8.346;2023-07-08T01:31:22;10.80;;;7.57;;
5054;SDS011;13829;48.990;8.346;2023-07-08T01:33:50;12.57;;;7.60;;
5054;SDS011;13829;48.990;8.346;2023-07-08T01:36:19;12.40;;;8.05;;
5054;SDS011;13829;48.990;8.346;2023-07-08T01:38:46;14.48;;;8.05;;
5054;SDS011;13829;48.990;8.346;2023-07-08T01:41:15;10.63;;;7.65;;
5054;SDS011;13829;48.990;8.346;2023-07-08T01:43:43;10.52;;;7.38;;
5054;SDS011;13829;48.990;8.346;2023-07-08T01:46:11;9.63;;;7.30;;
5054;SDS011;13829;48.990;8.346;2023-07-08T01:48:46;9.23;;;6.95;;
5054;SDS011;13829;48.990;8.346;2023-07-08T01:51:18;9.65;;;6.65;;
5054;SDS011;13829;48.990;8.346;2023-07-08T01:53:47;11.40;;;7.55;;
5054;SDS011;13829;48.990;8.346;2023-07-08T01:56:15;10.07;;;7.15;;
5054;SDS011;13829;48.990;8.346;2023-07-08T01:58:42;14.90;;;7.07;;
5054;SDS011;13829;48.990;8.346;2023-07-08T02:01:09;10.13;;;6.68;;
5054;SDS011;13829;48.990;8.346;2023-07-08T02:03:36;10.27;;;6.68;;
5054;SDS011;13829;48.990;8.346;2023-07-08T02:06:03;13.18;;;7.32;;
5054;SDS011;13829;48.990;8.346;2023-07-08T02:08:31;9.48;;;7.45;;
5054;SDS011;13829;48.990;8.346;2023-07-08T02:10:58;11.63;;;7.78;;
5054;SDS011;13829;48.990;8.346;2023-07-08T02:13:26;11.10;;;7.60;;
5054;SDS011;13829;48.990;8.346;2023-07-08T02:15:53;11.68;;;7.28;;
5054;SDS011;13829;48.990;8.346;2023-07-08T02:18:20;10.13;;;7.63;;
5054;SDS011;13829;48.990;8.346;2023-07-08T02:20:48;9.73;;;7.70;;
5054;SDS011;13829;48.990;8.346;2023-07-08T02:23:20;12.05;;;7.30;;
5054;SDS011;13829;48.990;8.346;2023-07-08T02:25:50;10.88;;;7.82;;
5054;SDS011;13829;48.990;8.346;2023-07-08T02:28:17;11.38;;;7.72;;
5054;SDS011;13829;48.990;8.346;2023-07-08T02:30:46;10.43;;;7.60;;
5054;SDS011;13829;48.990;8.346;2023-07-08T02:33:13;11.27;;;8.13;;
5054;SDS011;13829;48.990;8.346;2023-07-08T02:35:42;11.55;;;7.82;;
5054;SDS011;13829;48.990;8.346;2023-07-08T02:38:10;12.20;;;8.80;;
5054;SDS011;13829;48.990;8.346;2023-07-08T02:40:37;13.07;;;7.68;;
5054;SDS011;13829;48.990;8.346;2023-07-08T02:43:04;10.57;;;7.57;;
5054;SDS011;13829;48.990;8.346;2023-07-08T02:45:31;11.68;;;8.02;;
5054;SDS011;13829;48.990;8.346;2023-07-08T02:47:59;9.65;;;7.45;;
5054;SDS011;13829;48.990;8.346;2023-07-08T02:50:26;10.65;;;7.22;;
5054;SDS011;13829;48.990;8.346;2023-07-08T02:52:53;9.65;;;6.68;;
5054;SDS011;13829;48.990;8.346;2023-07-08T02:55:20;11.30;;;7.65;;
5054;SDS011;13829;48.990;8.346;2023-07-08T02:57:47;9.98;;;8.00;;
5054;SDS011;13829;48.990;8.346;2023-07-08T03:00:14;10.63;;;6.68;;
5054;SDS011;13829;48.990;8.346;2023-07-08T03:02:41;12.40;;;8.10;;
5054;SDS011;13829;48.990;8.346;2023-07-08T03:05:10;9.10;;;6.80;;
5054;SDS011;13829;48.990;8.346;2023-07-08T03:07:36;9.75;;;7.38;;
5054;SDS011;13829;48.990;8.346;2023-07-08T03:10:03;10.85;;;7.55;;
5054;SDS011;13829;48.990;8.346;2023-07-08T03:12:31;9.68;;;7.10;;
5054;SDS011;13829;48.990;8.346;2023-07-08T03:14:58;9.25;;;6.82;;
5054;SDS011;13829;48.990;8.346;2023-07-08T03:17:25;10.75;;;7.60;;
5054;SDS011;13829;48.990;8.346;2023-07-08T03:19:52;11.50;;;7.63;;
5054;SDS011;13829;48.990;8.346;2023-07-08T03:22:20;10.23;;;7.03;;
5054;SDS011;13829;48.990;8.346;2023-07-08T03:24:47;11.20;;;7.80;;
5054;SDS011;13829;48.990;8.346;2023-07-08T03:27:14;14.60;;;8.25;;
5054;SDS011;13829;48.990;8.346;2023-07-08T03:29:42;10.40;;;7.75;;
5054;SDS011;13829;48.990;8.346;2023-07-08T03:32:09;10.25;;;7.60;;
5054;SDS011;13829;48.990;8.346;2023-07-08T03:34:38;12.80;;;7.72;;
5054;SDS011;13829;48.990;8.346;2023-07-08T03:37:05;10.80;;;7.93;;
5054;SDS011;13829;48.990;8.346;2023-07-08T03:39:33;11.48;;;7.10;;
5054;SDS011;13829;48.990;8.346;2023-07-08T03:42:00;13.63;;;7.95;;
5054;SDS011;13829;48.990;8.346;2023-07-08T03:44:28;10.18;;;7.53;;
5054;SDS011;13829;48.990;8.346;2023-07-08T03:46:55;10.63;;;7.45;;
5054;SDS011;13829;48.990;8.346;2023-07-08T03:49:22;10.75;;;7.90;;
5054;SDS011;13829;48.990;8.346;2023-07-08T03:51:50;11.60;;;7.68;;
5054;SDS011;13829;48.990;8.346;2023-07-08T03:54:20;11.77;;;8.10;;
5054;SDS011;13829;48.990;8.346;2023-07-08T03:56:50;10.13;;;7.72;;
5054;SDS011;13829;48.990;8.346;2023-07-08T03:59:17;12.05;;;7.93;;
5054;SDS011;13829;48.990;8.346;2023-07-08T04:01:45;13.05;;;8.07;;
5054;SDS011;13829;48.990;8.346;2023-07-08T04:04:12;11.00;;;7.60;;
5054;SDS011;13829;48.990;8.346;2023-07-08T04:06:41;9.38;;;7.43;;
5054;SDS011;13829;48.990;8.346;2023-07-08T04:09:10;10.38;;;7.35;;
5054;SDS011;13829;48.990;8.346;2023-07-08T04:11:37;11.35;;;8.40;;
5054;SDS011;13829;48.990;8.346;2023-07-08T04:14:05;10.63;;;7.15;;
5054;SDS011;13829;48.990;8.346;2023-07-08T04:16:35;11.13;;;7.68;;
5054;SDS011;13829;48.990;8.346;2023-07-08T04:19:13;11.82;;;7.80;;
5054;SDS011;13829;48.990;8.346;2023-07-08T04:21:41;10.15;;;7.38;;
5054;SDS011;13829;48.990;8.346;2023-07-08T04:24:10;10.50;;;7.75;;
5054;SDS011;13829;48.990;8.346;2023-07-08T04:26:39;10.07;;;7.95;;
5054;SDS011;13829;48.990;8.346;2023-07-08T04:29:11;10.57;;;7.70;;
5054;SDS011;13829;48.990;8.346;2023-07-08T04:31:38;10.70;;;8.20;;
5054;SDS011;13829;48.990;8.346;2023-07-08T04:34:07;12.00;;;8.13;;
5054;SDS011;13829;48.990;8.346;2023-07-08T04:36:35;11.63;;;8.25;;
5054;SDS011;13829;48.990;8.346;2023-07-08T04:39:03;11.10;;;8.15;;
5054;SDS011;13829;48.990;8.346;2023-07-08T04:41:32;13.05;;;8.40;;
5054;SDS011;13829;48.990;8.346;2023-07-08T04:43:59;11.85;;;8.07;;
5054;SDS011;13829;48.990;8.346;2023-07-08T04:46:33;14.77;;;8.55;;
5054;SDS011;13829;48.990;8.346;2023-07-08T04:49:04;9.23;;;7.80;;
5054;SDS011;13829;48.990;8.346;2023-07-08T04:51:32;12.48;;;8.75;;
5054;SDS011;13829;48.990;8.346;2023-07-08T04:53:59;11.93;;;8.32;;
5054;SDS011;13829;48.990;8.346;2023-07-08T04:56:34;9.77;;;8.13;;
5054;SDS011;13829;48.990;8.346;2023-07-08T04:59:04;9.98;;;7.57;;
5054;SDS011;13829;48.990;8.346;2023-07-08T05:01:33;11.43;;;8.07;;
5054;SDS011;13829;48.990;8.346;2023-07-08T05:04:00;12.82;;;8.45;;
5054;SDS011;13829;48.990;8.346;2023-07-08T05:06:30;12.02;;;8.00;;
5054;SDS011;13829;48.990;8.346;2023-07-08T05:08:58;10.35;;;7.90;;
5054;SDS011;13829;48.990;8.346;2023-07-08T05:11:26;12.50;;;8.55;;
5054;SDS011;13829;48.990;8.346;2023-07-08T05:13:53;10.48;;;7.45;;
5054;SDS011;13829;48.990;8.346;2023-07-08T05:16:20;11.45;;;8.60;;
5054;SDS011;13829;48.990;8.346;2023-07-08T05:18:49;14.90;;;9.45;;
5054;SDS011;13829;48.990;8.346;2023-07-08T05:21:19;11.77;;;8.65;;
5054;SDS011;13829;48.990;8.346;2023-07-08T05:23:46;10.98;;;8.75;;
5054;SDS011;13829;48.990;8.346;2023-07-08T05:26:15;11.05;;;8.48;;
5054;SDS011;13829;48.990;8.346;2023-07-08T05:28:43;13.00;;;8.65;;
5054;SDS011;13829;48.990;8.346;2023-07-08T05:31:10;14.57;;;8.93;;
5054;SDS011;13829;48.990;8.346;2023-07-08T05:33:37;13.32;;;8.13;;
5054;SDS011;13829;48.990;8.346;2023-07-08T05:36:05;11.43;;;8.38;;
5054;SDS011;13829;48.990;8.346;2023-07-08T05:38:32;10.70;;;8.18;;
5054;SDS011;13829;48.990;8.346;2023-07-08T05:40:59;11.30;;;8.45;;
5054;SDS011;13829;48.990;8.346;2023-07-08T05:43:26;13.40;;;9.07;;
5054;SDS011;13829;48.990;8.346;2023-07-08T05:45:56;14.88;;;8.55;;
5054;SDS011;13829;48.990;8.346;2023-07-08T05:48:24;11.32;;;8.40;;
5054;SDS011;13829;48.990;8.346;2023-07-08T05:50:51;9.57;;;7.20;;
5054;SDS011;13829;48.990;8.346;2023-07-08T05:53:20;10.27;;;7.50;;
5054;SDS011;13829;48.990;8.346;2023-07-08T05:55:47;9.90;;;8.02;;
5054;SDS011;13829;48.990;8.346;2023-07-08T05:58:15;10.85;;;7.18;;
5054;SDS011;13829;48.990;8.346;2023-07-08T06:00:42;10.05;;;7.25;;
5054;SDS011;13829;48.990;8.346;2023-07-08T06:03:09;9.60;;;6.40;;
5054;SDS011;13829;48.990;8.346;2023-07-08T06:05:37;11.10;;;6.93;;
5054;SDS011;13829;48.990;8.346;2023-07-08T06:08:05;9.43;;;6.22;;
5054;SDS011;13829;48.990;8.346;2023-07-08T06:10:34;9.18;;;6.22;;
5054;SDS011;13829;48.990;8.346;2023-07-08T06:13:08;10.38;;;6.20;;
5054;SDS011;13829;48.990;8.346;2023-07-08T06:15:35;9.05;;;5.93;;
5054;SDS011;13829;48.990;8.346;2023-07-08T06:18:02;9.10;;;6.03;;
5054;SDS011;13829;48.990;8.346;2023-07-08T06:20:29;10.05;;;5.97;;
5054;SDS011;13829;48.990;8.346;2023-07-08T06:22:57;10.02;;;5.63;;
5054;SDS011;13829;48.990;8.346;2023-07-08T06:25:24;8.32;;;5.55;;
5054;SDS011;13829;48.990;8.346;2023-07-08T06:27:52;10.65;;;6.22;;
5054;SDS011;13829;48.990;8.346;2023-07-08T06:30:19;8.13;;;5.65;;
5054;SDS011;13829;48.990;8.346;2023-07-08T06:32:46;8.13;;;6.03;;
5054;SDS011;13829;48.990;8.346;2023-07-08T06:35:13;8.88;;;6.07;;
5054;SDS011;13829;48.990;8.346;2023-07-08T06:37:40;12.25;;;7.00;;
5054;SDS011;13829;48.990;8.346;2023-07-08T06:40:07;8.68;;;5.82;;
5054;SDS011;13829;48.990;8.346;2023-07-08T06:42:35;8.32;;;6.28;;
5054;SDS011;13829;48.990;8.346;2023-07-08T06:45:04;8.35;;;5.60;;
5054;SDS011;13829;48.990;8.346;2023-07-08T06:47:32;7.95;;;5.60;;
5054;SDS011;13829;48.990;8.346;2023-07-08T06:49:58;8.27;;;5.00;;
5054;SDS011;13829;48.990;8.346;2023-07-08T06:52:25;7.55;;;5.00;;
5054;SDS011;13829;48.990;8.346;2023-07-08T06:54:52;10.35;;;4.95;;
5054;SDS011;13829;48.990;8.346;2023-07-08T06:57:19;7.28;;;4.45;;
5054;SDS011;13829;48.990;8.346;2023-07-08T06:59:46;7.65;;;4.85;;
5054;SDS011;13829;48.990;8.346;2023-07-08T07:02:14;7.35;;;4.38;;
5054;SDS011;13829;48.990;8.346;2023-07-08T07:04:42;7.25;;;4.13;;
5054;SDS011;13829;48.990;8.346;2023-07-08T07:07:09;7.50;;;3.83;;
5054;SDS011;13829;48.990;8.346;2023-07-08T07:09:36;6.30;;;3.50;;
5054;SDS011;13829;48.990;8.346;2023-07-08T07:12:04;4.13;;;3.33;;
5054;SDS011;13829;48.990;8.346;2023-07-08T07:14:33;8.80;;;3.50;;
5054;SDS011;13829;48.990;8.346;2023-07-08T07:17:00;7.93;;;3.53;;
5054;SDS011;13829;48.990;8.346;2023-07-08T07:19:29;6.22;;;3.63;;
5054;SDS011;13829;48.990;8.346;2023-07-08T07:21:56;6.85;;;3.63;;
5054;SDS011;13829;48.990;8.346;2023-07-08T07:24:23;11.70;;;3.47;;
5054;SDS011;13829;48.990;8.346;2023-07-08T07:26:50;6.13;;;3.17;;
5054;SDS011;13829;48.990;8.346;2023-07-08T07:29:17;6.50;;;3.15;;
5054;SDS011;13829;48.990;8.346;2023-07-08T07:31:46;4.15;;;3.20;;
5054;SDS011;13829;48.990;8.346;2023-07-08T07:34:13;6.53;;;3.35;;
5054;SDS011;13829;48.990;8.346;2023-07-08T07:36:42;4.88;;;3.15;;
5054;SDS011;13829;48.990;8.346;2023-07-08T07:39:08;5.15;;;3.42;;
5054;SDS011;13829;48.990;8.346;2023-07-08T07:41:35;4.03;;;2.78;;
5054;SDS011;13829;48.990;8.346;2023-07-08T07:44:03;4.78;;;3.10;;
5054;SDS011;13829;48.990;8.346;2023-07-08T07:46:30;3.67;;;2.63;;
5054;SDS011;13829;48.990;8.346;2023-07-08T07:48:57;4.68;;;2.80;;
5054;SDS011;13829;48.990;8.346;2023-07-08T07:51:23;4.95;;;2.50;;
5054;SDS011;13829;48.990;8.346;2023-07-08T07:53:52;3.72;;;2.22;;
5054;SDS011;13829;48.990;8.346;2023-07-08T07:56:19;4.28;;;2.58;;
5054;SDS011;13829;48.990;8.346;2023-07-08T07:58:46;5.13;;;2.85;;
5054;SDS011;13829;48.990;8.346;2023-07-08T08:01:13;3.10;;;2.50;;
5054;SDS011;13829;48.990;8.346;2023-07-08T08:03:41;5.10;;;2.78;;
5054;SDS011;13829;48.990;8.346;2023-07-08T08:06:08;2.97;;;2.20;;
5054;SDS011;13829;48.990;8.346;2023-07-08T08:08:34;4.68;;;2.40;;
5054;SDS011;13829;48.990;8.346;2023-07-08T08:11:03;4.90;;;2.58;;
5054;SDS011;13829;48.990;8.346;2023-07-08T08:13:30;3.63;;;2.40;;
5054;SDS011;13829;48.990;8.346;2023-07-08T08:15:57;5.50;;;2.97;;
5054;SDS011;13829;48.990;8.346;2023-07-08T08:18:25;3.00;;;2.13;;
5054;SDS011;13829;48.990;8.346;2023-07-08T08:20:52;3.20;;;1.90;;
5054;SDS011;13829;48.990;8.346;2023-07-08T08:23:19;3.50;;;2.00;;
5054;SDS011;13829;48.990;8.346;2023-07-08T08:25:46;5.93;;;2.17;;
5054;SDS011;13829;48.990;8.346;2023-07-08T08:28:14;5.00;;;1.95;;
5054;SDS011;13829;48.990;8.346;2023-07-08T08:30:41;3.95;;;2.30;;
5054;SDS011;13829;48.990;8.346;2023-07-08T08:33:08;3.33;;;1.85;;
5054;SDS011;13829;48.990;8.346;2023-07-08T08:35:35;4.50;;;2.13;;
5054;SDS011;13829;48.990;8.346;2023-07-08T08:38:02;3.22;;;1.83;;
5054;SDS011;13829;48.990;8.346;2023-07-08T08:40:30;3.08;;;1.83;;
5054;SDS011;13829;48.990;8.346;2023-07-08T08:42:59;4.13;;;2.17;;
5054;SDS011;13829;48.990;8.346;2023-07-08T08:45:32;4.20;;;2.13;;
5054;SDS011;13829;48.990;8.346;2023-07-08T08:48:10;3.28;;;2.13;;
5054;SDS011;13829;48.990;8.346;2023-07-08T08:50:47;3.78;;;2.17;;
5054;SDS011;13829;48.990;8.346;2023-07-08T08:53:19;3.45;;;2.15;;
5054;SDS011;13829;48.990;8.346;2023-07-08T08:55:51;2.88;;;1.85;;
5054;SDS011;13829;48.990;8.346;2023-07-08T08:58:27;3.45;;;1.60;;
5054;SDS011;13829;48.990;8.346;2023-07-08T09:01:07;3.20;;;1.58;;
5054;SDS011;13829;48.990;8.346;2023-07-08T09:03:41;3.67;;;1.95;;
5054;SDS011;13829;48.990;8.346;2023-07-08T09:06:16;3.95;;;1.98;;
5054;SDS011;13829;48.990;8.346;2023-07-08T09:08:48;2.75;;;1.67;;
5054;SDS011;13829;48.990;8.346;2023-07-08T09:11:19;2.92;;;1.52;;
5054;SDS011;13829;48.990;8.346;2023-07-08T09:13:58;4.00;;;1.60;;
5054;SDS011;13829;48.990;8.346;2023-07-08T09:16:29;3.28;;;1.60;;
5054;SDS011;13829;48.990;8.346;2023-07-08T09:19:11;2.00;;;1.50;;
5054;SDS011;13829;48.990;8.346;2023-07-08T09:21:41;4.10;;;1.80;;
5054;SDS011;13829;48.990;8.346;2023-07-08T09:24:16;3.85;;;1.77;;
5054;SDS011;13829;48.990;8.346;2023-07-08T09:26:52;3.83;;;2.13;;
5054;SDS011;13829;48.990;8.346;2023-07-08T09:29:23;2.83;;;1.45;;
5054;SDS011;13829;48.990;8.346;2023-07-08T09:31:51;3.17;;;1.85;;
5054;SDS011;13829;48.990;8.346;2023-07-08T09:34:21;2.13;;;1.65;;
5054;SDS011;13829;48.990;8.346;2023-07-08T09:36:50;3.33;;;1.98;;
5054;SDS011;13829;48.990;8.346;2023-07-08T09:39:19;3.05;;;1.88;;
5054;SDS011;13829;48.990;8.346;2023-07-08T09:41:47;2.53;;;1.88;;
5054;SDS011;13829;48.990;8.346;2023-07-08T09:44:17;2.90;;;1.63;;
5054;SDS011;13829;48.990;8.346;2023-07-08T09:46:52;3.70;;;1.50;;
5054;SDS011;13829;48.990;8.346;2023-07-08T09:49:21;4.72;;;1.58;;
5054;SDS011;13829;48.990;8.346;2023-07-08T09:51:53;2.60;;;1.98;;
5054;SDS011;13829;48.990;8.346;2023-07-08T09:54:23;5.97;;;1.70;;
5054;SDS011;13829;48.990;8.346;2023-07-08T09:56:54;2.17;;;1.40;;
5054;SDS011;13829;48.990;8.346;2023-07-08T09:59:30;3.25;;;1.60;;
5054;SDS011;13829;48.990;8.346;2023-07-08T10:02:16;2.78;;;1.50;;
5054;SDS011;13829;48.990;8.346;2023-07-08T10:04:56;2.25;;;1.50;;
5054;SDS011;13829;48.990;8.346;2023-07-08T10:07:27;2.30;;;1.67;;
5054;SDS011;13829;48.990;8.346;2023-07-08T10:09:58;3.33;;;2.30;;
5054;SDS011;13829;48.990;8.346;2023-07-08T10:12:32;2.92;;;1.95;;
5054;SDS011;13829;48.990;8.346;2023-07-08T10:15:03;4.00;;;2.10;;
5054;SDS011;13829;48.990;8.346;2023-07-08T10:17:45;2.78;;;1.70;;
5054;SDS011;13829;48.990;8.346;2023-07-08T10:20:13;2.80;;;1.90;;
5054;SDS011;13829;48.990;8.346;2023-07-08T10:22:41;4.07;;;1.80;;
5054;SDS011;13829;48.990;8.346;2023-07-08T10:25:26;2.80;;;1.80;;
5054;SDS011;13829;48.990;8.346;2023-07-08T10:28:03;3.03;;;1.95;;
5054;SDS011;13829;48.990;8.346;2023-07-08T10:30:53;3.00;;;1.80;;
5054;SDS011;13829;48.990;8.346;2023-07-08T10:33:39;3.42;;;2.22;;
5054;SDS011;13829;48.990;8.346;2023-07-08T10:36:23;4.32;;;2.22;;
5054;SDS011;13829;48.990;8.346;2023-07-08T10:39:09;4.82;;;2.30;;
5054;SDS011;13829;48.990;8.346;2023-07-08T10:42:04;5.20;;;2.28;;
5054;SDS011;13829;48.990;8.346;2023-07-08T10:44:50;3.00;;;1.90;;
5054;SDS011;13829;48.990;8.346;2023-07-08T10:47:34;3.42;;;2.35;;
5054;SDS011;13829;48.990;8.346;2023-07-08T10:50:28;3.33;;;2.10;;
5054;SDS011;13829;48.990;8.346;2023-07-08T10:53:21;4.28;;;2.95;;
5054;SDS011;13829;48.990;8.346;2023-07-08T10:56:14;3.85;;;2.50;;
5054;SDS011;13829;48.990;8.346;2023-07-08T10:58:50;7.07;;;2.10;;
5054;SDS011;13829;48.990;8.346;2023-07-08T11:01:35;5.43;;;2.72;;
5054;SDS011;13829;48.990;8.346;2023-07-08T11:04:23;3.67;;;1.83;;
5054;SDS011;13829;48.990;8.346;2023-07-08T11:07:08;5.50;;;2.38;;
5054;SDS011;13829;48.990;8.346;2023-07-08T11:09:44;3.90;;;2.40;;
5054;SDS011;13829;48.990;8.346;2023-07-08T11:12:20;4.03;;;2.28;;
5054;SDS011;13829;48.990;8.346;2023-07-08T11:14:56;3.33;;;2.28;;
5054;SDS011;13829;48.990;8.346;2023-07-08T11:17:34;3.25;;;2.47;;
5054;SDS011;13829;48.990;8.346;2023-07-08T11:20:11;4.13;;;2.00;;
5054;SDS011;13829;48.990;8.346;2023-07-08T11:22:47;4.65;;;2.50;;
5054;SDS011;13829;48.990;8.346;2023-07-08T11:25:20;6.65;;;2.33;;
5054;SDS011;13829;48.990;8.346;2023-07-08T11:27:54;4.90;;;2.00;;
5054;SDS011;13829;48.990;8.346;2023-07-08T11:30:26;4.80;;;2.70;;
5054;SDS011;13829;48.990;8.346;2023-07-08T11:32:58;3.55;;;2.67;;
5054;SDS011;13829;48.990;8.346;2023-07-08T11:35:33;3.38;;;2.33;;
5054;SDS011;13829;48.990;8.346;2023-07-08T11:38:10;4.95;;;2.42;;
5054;SDS011;13829;48.990;8.346;2023-07-08T11:40:51;3.65;;;2.70;;
5054;SDS011;13829;48.990;8.346;2023-07-08T11:43:22;5.35;;;2.53;;
5054;SDS011;13829;48.990;8.346;2023-07-08T11:45:54;3.33;;;2.33;;
5054;SDS011;13829;48.990;8.346;2023-07-08T11:48:24;3.85;;;2.63;;
5054;SDS011;13829;48.990;8.346;2023-07-08T11:50:56;3.42;;;2.47;;
5054;SDS011;13829;48.990;8.346;2023-07-08T11:53:37;4.43;;;3.08;;
5054;SDS011;13829;48.990;8.346;2023-07-08T11:59:16;4.75;;;3.35;;
5054;SDS011;13829;48.990;8.346;2023-07-08T12:01:47;4.28;;;3.08;;
5054;SDS011;13829;48.990;8.346;2023-07-08T12:04:23;3.47;;;2.70;;
5054;SDS011;13829;48.990;8.346;2023-07-08T12:07:09;5.07;;;2.75;;
5054;SDS011;13829;48.990;8.346;2023-07-08T12:09:46;6.40;;;3.35;;
5054;SDS011;13829;48.990;8.346;2023-07-08T12:12:23;5.93;;;3.20;;
5054;SDS011;13829;48.990;8.346;2023-07-08T12:14:58;4.40;;;3.33;;
5054;SDS011;13829;48.990;8.346;2023-07-08T12:17:49;3.45;;;3.15;;
5054;SDS011;13829;48.990;8.346;2023-07-08T12:20:21;4.88;;;3.13;;
5054;SDS011;13829;48.990;8.346;2023-07-08T12:22:53;3.38;;;2.85;;
5054;SDS011;13829;48.990;8.346;2023-07-08T12:25:23;4.90;;;2.95;;
5054;SDS011;13829;48.990;8.346;2023-07-08T12:27:55;3.78;;;2.90;;
5054;SDS011;13829;48.990;8.346;2023-07-08T12:30:23;5.25;;;2.85;;
5054;SDS011;13829;48.990;8.346;2023-07-08T12:32:53;3.80;;;2.90;;
5054;SDS011;13829;48.990;8.346;2023-07-08T12:35:25;4.15;;;3.28;;
5054;SDS011;13829;48.990;8.346;2023-07-08T12:37:56;7.30;;;3.28;;
5054;SDS011;13829;48.990;8.346;2023-07-08T12:40:29;7.13;;;3.95;;
5054;SDS011;13829;48.990;8.346;2023-07-08T12:42:56;4.38;;;3.47;;
5054;SDS011;13829;48.990;8.346;2023-07-08T12:45:26;6.10;;;3.22;;
5054;SDS011;13829;48.990;8.346;2023-07-08T12:47:57;5.30;;;3.25;;
5054;SDS011;13829;48.990;8.346;2023-07-08T12:50:24;3.80;;;3.10;;
5054;SDS011;13829;48.990;8.346;2023-07-08T12:52:51;5.18;;;3.30;;
5054;SDS011;13829;48.990;8.346;2023-07-08T12:55:18;5.80;;;3.05;;
5054;SDS011;13829;48.990;8.346;2023-07-08T12:57:47;6.85;;;3.38;;
5054;SDS011;13829;48.990;8.346;2023-07-08T13:00:18;6.30;;;3.35;;
5054;SDS011;13829;48.990;8.346;2023-07-08T13:02:54;6.05;;;3.83;;
5054;SDS011;13829;48.990;8.346;2023-07-08T13:05:30;5.05;;;3.15;;
5054;SDS011;13829;48.990;8.346;2023-07-08T13:07:57;4.00;;;3.03;;
5054;SDS011;13829;48.990;8.346;2023-07-08T13:10:25;6.45;;;3.35;;
5054;SDS011;13829;48.990;8.346;2023-07-08T13:12:57;7.35;;;3.80;;
5054;SDS011;13829;48.990;8.346;2023-07-08T13:15:30;8.27;;;4.00;;
5054;SDS011;13829;48.990;8.346;2023-07-08T13:18:01;9.48;;;4.32;;
5054;SDS011;13829;48.990;8.346;2023-07-08T13:20:29;6.13;;;3.72;;
5054;SDS011;13829;48.990;8.346;2023-07-08T13:22:58;4.15;;;3.45;;
5054;SDS011;13829;48.990;8.346;2023-07-08T13:25:28;6.70;;;4.05;;
5054;SDS011;13829;48.990;8.346;2023-07-08T13:28:00;5.57;;;3.35;;
5054;SDS011;13829;48.990;8.346;2023-07-08T13:30:30;6.50;;;3.60;;
5054;SDS011;13829;48.990;8.346;2023-07-08T13:32:58;8.02;;;4.00;;
5054;SDS011;13829;48.990;8.346;2023-07-08T13:35:27;6.63;;;3.22;;
5054;SDS011;13829;48.990;8.346;2023-07-08T13:38:02;5.35;;;3.70;;
5054;SDS011;13829;48.990;8.346;2023-07-08T13:40:30;5.60;;;3.47;;
5054;SDS011;13829;48.990;8.346;2023-07-08T13:42:59;5.22;;;3.65;;
5054;SDS011;13829;48.990;8.346;2023-07-08T13:45:29;4.70;;;3.38;;
5054;SDS011;13829;48.990;8.346;2023-07-08T13:48:01;5.35;;;3.67;;
5054;SDS011;13829;48.990;8.346;2023-07-08T13:50:41;6.68;;;3.60;;
5054;SDS011;13829;48.990;8.346;2023-07-08T13:53:15;5.35;;;3.33;;
5054;SDS011;13829;48.990;8.346;2023-07-08T13:55:45;5.85;;;3.60;;
5054;SDS011;13829;48.990;8.346;2023-07-08T13:58:15;5.38;;;3.72;;
5054;SDS011;13829;48.990;8.346;2023-07-08T14:00:44;4.63;;;3.13;;
5054;SDS011;13829;48.990;8.346;2023-07-08T14:03:11;4.20;;;3.28;;
5054;SDS011;13829;48.990;8.346;2023-07-08T14:05:44;6.07;;;3.15;;
5054;SDS011;13829;48.990;8.346;2023-07-08T14:08:12;5.50;;;3.25;;
5054;SDS011;13829;48.990;8.346;2023-07-08T14:10:43;5.07;;;3.88;;
5054;SDS011;13829;48.990;8.346;2023-07-08T14:13:10;4.82;;;3.63;;
5054;SDS011;13829;48.990;8.346;2023-07-08T14:15:38;4.32;;;3.55;;
5054;SDS011;13829;48.990;8.346;2023-07-08T14:18:06;5.57;;;4.07;;
5054;SDS011;13829;48.990;8.346;2023-07-08T14:20:36;6.60;;;3.95;;
5054;SDS011;13829;48.990;8.346;2023-07-08T14:23:03;7.03;;;3.65;;
5054;SDS011;13829;48.990;8.346;2023-07-08T14:25:30;7.07;;;3.60;;
5054;SDS011;13829;48.990;8.346;2023-07-08T14:27:57;6.35;;;3.72;;
5054;SDS011;13829;48.990;8.346;2023-07-08T14:30:24;4.90;;;3.35;;
5054;SDS011;13829;48.990;8.346;2023-07-08T14:32:52;4.95;;;3.38;;
5054;SDS011;13829;48.990;8.346;2023-07-08T14:35:21;3.45;;;3.10;;
5054;SDS011;13829;48.990;8.346;2023-07-08T14:37:51;4.10;;;3.25;;
5054;SDS011;13829;48.990;8.346;2023-07-08T14:40:22;6.82;;;3.60;;
5054;SDS011;13829;48.990;8.346;2023-07-08T14:42:54;5.10;;;3.60;;
5054;SDS011;13829;48.990;8.346;2023-07-08T14:45:26;5.60;;;3.70;;
5054;SDS011;13829;48.990;8.346;2023-07-08T14:47:57;5.47;;;3.30;;
5054;SDS011;13829;48.990;8.346;2023-07-08T14:50:24;4.57;;;3.20;;
5054;SDS011;13829;48.990;8.346;2023-07-08T14:52:54;5.60;;;3.53;;
5054;SDS011;13829;48.990;8.346;2023-07-08T14:55:22;5.70;;;3.67;;
5054;SDS011;13829;48.990;8.346;2023-07-08T14:57:49;7.55;;;3.92;;
5054;SDS011;13829;48.990;8.346;2023-07-08T15:00:18;4.70;;;3.33;;
5054;SDS011;13829;48.990;8.346;2023-07-08T15:02:46;5.70;;;3.55;;
5054;SDS011;13829;48.990;8.346;2023-07-08T15:05:19;6.68;;;3.78;;
5054;SDS011;13829;48.990;8.346;2023-07-08T15:07:49;6.18;;;4.25;;
5054;SDS011;13829;48.990;8.346;2023-07-08T15:10:16;6.78;;;4.20;;
5054;SDS011;13829;48.990;8.346;2023-07-08T15:12:44;6.57;;;3.75;;
5054;SDS011;13829;48.990;8.346;2023-07-08T15:15:15;5.93;;;3.67;;
5054;SDS011;13829;48.990;8.346;2023-07-08T15:17:48;5.30;;;3.28;;
5054;SDS011;13829;48.990;8.346;2023-07-08T15:20:16;14.55;;;4.63;;